Time;durP1;ratioP1;P1;durP2;ratioP2;P2;SDS_P1;SDS_P2;PMS_P1;PMS_P2;Temp;Humidity;BMP_temperature;BMP_pressure;BME280_temperature;BME280_humidity;BME280_pressure;Samples;Min_cycle;Max_cycle;Signal;HPM_P1;HPM_P2
2022/07/15 00:00:31;;;;;;;2.08;0.73;;;;;;;;;;5096120;28;20443;-85
2022/07/15 00:02:58;;;;;;;4.60;1.20;;;;;;;;;;5096411;28;20027;-84
2022/07/15 00:05:24;;;;;;;2.05;1.08;;;;;;;;;;5120445;27;20032;-85
2022/07/15 00:07:52;;;;;;;2.45;0.88;;;;;;;;;;5112984;28;20507;-85
2022/07/15 00:10:26;;;;;;;1.33;0.90;;;;;;;;;;5130080;27;20042;-84
2022/07/15 00:12:57;;;;;;;2.67;0.70;;;;;;;;;;5113004;28;20073;-85
2022/07/15 00:15:26;;;;;;;3.97;0.90;;;;;;;;;;5112479;28;20123;-85
2022/07/15 00:17:53;;;;;;;1.83;0.82;;;;;;;;;;5112842;28;20031;-86
2022/07/15 00:20:22;;;;;;;1.65;0.85;;;;;;;;;;5112816;28;20031;-86
2022/07/15 00:22:48;;;;;;;2.25;0.80;;;;;;;;;;5112639;28;20504;-86
2022/07/15 00:25:17;;;;;;;4.97;1.13;;;;;;;;;;5112860;28;20067;-86
2022/07/15 00:28:06;;;;;;;2.22;0.68;;;;;;;;;;5112464;28;20031;-86
2022/07/15 00:30:38;;;;;;;2.83;0.88;;;;;;;;;;5115258;28;20031;-85
2022/07/15 00:33:04;;;;;;;2.58;1.00;;;;;;;;;;5114857;28;20024;-85
2022/07/15 00:35:33;;;;;;;3.20;0.98;;;;;;;;;;5114593;28;20036;-86
2022/07/15 00:38:00;;;;;;;4.82;0.95;;;;;;;;;;5112653;28;20046;-86
2022/07/15 00:40:26;;;;;;;4.45;0.70;;;;;;;;;;5094945;28;20039;-86
2022/07/15 00:42:52;;;;;;;3.72;1.00;;;;;;;;;;5095601;28;20050;-86
2022/07/15 00:45:20;;;;;;;6.40;1.00;;;;;;;;;;5096055;28;20035;-86
2022/07/15 00:47:55;;;;;;;5.53;1.00;;;;;;;;;;5095833;28;20043;-85
2022/07/15 00:50:22;;;;;;;2.43;0.80;;;;;;;;;;5112693;28;20397;-85
2022/07/15 00:52:55;;;;;;;2.28;1.00;;;;;;;;;;5095707;28;20085;-85
2022/07/15 00:55:23;;;;;;;2.78;0.90;;;;;;;;;;5095470;28;20092;-85
2022/07/15 00:57:51;;;;;;;1.42;0.95;;;;;;;;;;5112628;28;20084;-85
2022/07/15 01:00:17;;;;;;;2.60;1.15;;;;;;;;;;5095390;28;20096;-85
2022/07/15 01:02:49;;;;;;;2.70;1.13;;;;;;;;;;5095343;28;20114;-84
2022/07/15 01:05:16;;;;;;;7.00;1.20;;;;;;;;;;5112318;28;20035;-84
2022/07/15 01:07:42;;;;;;;3.80;1.05;;;;;;;;;;5133172;27;20101;-85
2022/07/15 01:10:08;;;;;;;2.78;0.80;;;;;;;;;;5120444;27;20035;-84
2022/07/15 01:12:37;;;;;;;4.53;1.00;;;;;;;;;;5120981;27;20023;-85
2022/07/15 01:15:05;;;;;;;2.85;0.98;;;;;;;;;;5120544;27;20433;-84
2022/07/15 01:17:32;;;;;;;1.95;0.80;;;;;;;;;;5138276;27;20480;-84
2022/07/15 01:19:59;;;;;;;2.15;0.93;;;;;;;;;;5121460;27;20092;-84
2022/07/15 01:22:26;;;;;;;3.67;1.08;;;;;;;;;;5138148;27;20051;-85
2022/07/15 01:24:53;;;;;;;5.32;0.93;;;;;;;;;;5120808;27;20035;-85
2022/07/15 01:27:24;;;;;;;1.95;0.95;;;;;;;;;;5138051;27;20026;-85
2022/07/15 01:29:51;;;;;;;4.38;0.80;;;;;;;;;;5120383;27;20484;-85
2022/07/15 01:32:18;;;;;;;0.77;0.73;;;;;;;;;;5120263;27;20034;-86
2022/07/15 01:34:48;;;;;;;3.85;0.98;;;;;;;;;;5107221;28;20039;-85
2022/07/15 01:37:15;;;;;;;2.70;0.95;;;;;;;;;;5100658;28;20028;-85
2022/07/15 01:39:47;;;;;;;6.88;1.25;;;;;;;;;;5100611;28;20047;-85
2022/07/15 01:42:14;;;;;;;3.63;0.88;;;;;;;;;;5116603;28;20036;-85
2022/07/15 01:44:40;;;;;;;1.90;0.70;;;;;;;;;;5099461;28;20454;-85
2022/07/15 01:47:07;;;;;;;2.97;1.15;;;;;;;;;;5099904;28;20122;-85
2022/07/15 01:49:34;;;;;;;2.88;1.23;;;;;;;;;;5099933;28;20033;-85
2022/07/15 01:52:12;;;;;;;10.25;1.25;;;;;;;;;;5118042;28;20078;-85
2022/07/15 01:54:41;;;;;;;4.22;1.13;;;;;;;;;;5099278;28;20100;-84
2022/07/15 01:57:09;;;;;;;2.00;0.90;;;;;;;;;;5098287;28;20028;-85
2022/07/15 01:59:51;;;;;;;1.25;0.70;;;;;;;;;;5100998;28;20028;-85
2022/07/15 02:02:42;;;;;;;2.03;1.00;;;;;;;;;;5116342;28;20096;-85
2022/07/15 02:05:08;;;;;;;9.27;1.58;;;;;;;;;;5099259;28;20423;-84
2022/07/15 02:07:33;;;;;;;4.88;0.77;;;;;;;;;;5099844;28;20034;-85
2022/07/15 02:10:00;;;;;;;1.45;0.85;;;;;;;;;;5116710;28;20428;-86
2022/07/15 02:12:30;;;;;;;7.07;1.08;;;;;;;;;;5118209;27;20026;-85
2022/07/15 02:14:57;;;;;;;3.85;1.20;;;;;;;;;;5119242;27;20031;-86
2022/07/15 02:17:28;;;;;;;3.00;0.95;;;;;;;;;;5122347;27;20094;-82
2022/07/15 02:19:54;;;;;;;4.15;1.00;;;;;;;;;;5124046;27;20100;-82
2022/07/15 02:22:20;;;;;;;2.15;0.98;;;;;;;;;;5124906;27;20516;-80
2022/07/15 02:24:46;;;;;;;6.50;1.52;;;;;;;;;;5124817;27;20130;-80
2022/07/15 02:27:21;;;;;;;3.58;1.00;;;;;;;;;;5125819;27;20035;-80
2022/07/15 02:29:46;;;;;;;3.55;1.00;;;;;;;;;;5141859;27;20172;-80
2022/07/15 02:32:14;;;;;;;4.57;0.95;;;;;;;;;;5124972;27;20400;-80
2022/07/15 02:34:41;;;;;;;7.22;1.27;;;;;;;;;;5136603;27;20401;-80
2022/07/15 02:37:08;;;;;;;1.63;0.60;;;;;;;;;;5103230;28;20121;-81
2022/07/15 02:39:35;;;;;;;3.60;1.25;;;;;;;;;;5105293;28;20071;-80
2022/07/15 02:42:02;;;;;;;3.15;1.05;;;;;;;;;;5113914;28;20032;-80
2022/07/15 02:44:30;;;;;;;1.58;1.10;;;;;;;;;;5113634;28;20035;-82
2022/07/15 02:46:56;;;;;;;2.92;1.15;;;;;;;;;;5113670;28;20054;-81
2022/07/15 02:49:24;;;;;;;4.63;1.08;;;;;;;;;;5112760;28;20031;-79
2022/07/15 02:51:52;;;;;;;8.63;1.05;;;;;;;;;;5110674;28;20047;-81
2022/07/15 02:54:21;;;;;;;1.92;1.00;;;;;;;;;;5109286;28;20043;-78
2022/07/15 02:56:48;;;;;;;7.70;1.05;;;;;;;;;;5104451;28;20038;-82
2022/07/15 02:59:13;;;;;;;4.22;1.00;;;;;;;;;;5102823;28;20036;-82
2022/07/15 03:01:39;;;;;;;6.32;1.13;;;;;;;;;;5102555;28;20077;-82
2022/07/15 03:04:06;;;;;;;3.40;1.23;;;;;;;;;;5101954;28;20048;-82
2022/07/15 03:06:33;;;;;;;3.15;1.20;;;;;;;;;;5102239;28;20035;-82
2022/07/15 03:08:59;;;;;;;2.47;1.05;;;;;;;;;;5127553;27;20056;-79
2022/07/15 03:11:24;;;;;;;1.63;1.42;;;;;;;;;;5169108;27;20038;-79
2022/07/15 03:13:50;;;;;;;2.17;1.08;;;;;;;;;;5152154;27;20125;-80
2022/07/15 03:16:16;;;;;;;2.00;1.00;;;;;;;;;;5169635;27;20076;-80
2022/07/15 03:18:45;;;;;;;3.45;1.13;;;;;;;;;;5161867;27;20551;-80
2022/07/15 03:21:11;;;;;;;4.32;1.25;;;;;;;;;;5145462;27;20494;-79
2022/07/15 03:23:40;;;;;;;2.22;1.00;;;;;;;;;;5150595;27;20035;-79
2022/07/15 03:26:07;;;;;;;3.63;1.17;;;;;;;;;;5149820;27;20494;-79
2022/07/15 03:28:33;;;;;;;2.92;1.05;;;;;;;;;;5153427;27;20037;-80
2022/07/15 03:30:58;;;;;;;2.42;1.10;;;;;;;;;;5169851;27;20027;-80
2022/07/15 03:33:25;;;;;;;2.53;1.15;;;;;;;;;;5168673;27;20056;-80
2022/07/15 03:35:52;;;;;;;4.80;1.30;;;;;;;;;;5150155;27;20060;-80
2022/07/15 03:38:21;;;;;;;4.90;1.20;;;;;;;;;;5161778;27;20039;-80
2022/07/15 03:40:46;;;;;;;2.60;1.00;;;;;;;;;;5145495;27;20110;-80
2022/07/15 03:43:13;;;;;;;2.63;1.02;;;;;;;;;;5128502;27;20027;-80
2022/07/15 03:45:39;;;;;;;1.70;0.80;;;;;;;;;;5124164;27;20451;-79
2022/07/15 03:48:06;;;;;;;3.65;0.98;;;;;;;;;;5124092;27;20031;-79
2022/07/15 03:50:35;;;;;;;3.38;1.00;;;;;;;;;;5124496;27;20038;-79
2022/07/15 03:53:01;;;;;;;2.47;1.10;;;;;;;;;;5123416;27;20050;-80
2022/07/15 03:55:27;;;;;;;2.15;1.10;;;;;;;;;;5122317;27;20055;-80
2022/07/15 03:57:55;;;;;;;2.90;1.20;;;;;;;;;;5123371;27;20019;-79
2022/07/15 04:00:20;;;;;;;7.43;1.33;;;;;;;;;;5142688;27;20043;-79
2022/07/15 04:02:45;;;;;;;2.53;1.33;;;;;;;;;;5140469;27;20042;-80
2022/07/15 04:05:11;;;;;;;2.45;1.05;;;;;;;;;;5114958;28;20095;-80
2022/07/15 04:07:36;;;;;;;2.22;1.20;;;;;;;;;;5125367;28;20527;-80
2022/07/15 04:10:02;;;;;;;3.90;1.10;;;;;;;;;;5108802;28;20038;-79
2022/07/15 04:12:30;;;;;;;2.50;1.20;;;;;;;;;;5108570;28;20035;-80
2022/07/15 04:14:56;;;;;;;3.83;1.35;;;;;;;;;;5108006;28;20035;-80
2022/07/15 04:17:22;;;;;;;3.03;1.30;;;;;;;;;;5106235;28;20036;-79
2022/07/15 04:19:48;;;;;;;2.53;1.10;;;;;;;;;;5103431;28;20135;-80
2022/07/15 04:22:13;;;;;;;3.85;1.70;;;;;;;;;;5102059;28;20036;-80
2022/07/15 04:24:46;;;;;;;2.97;1.02;;;;;;;;;;5105472;28;20050;-80
2022/07/15 04:27:14;;;;;;;1.27;0.80;;;;;;;;;;5103757;28;20051;-80
2022/07/15 04:29:39;;;;;;;3.67;1.30;;;;;;;;;;5104003;28;20043;-80
2022/07/15 04:32:06;;;;;;;2.47;1.27;;;;;;;;;;5105661;28;20054;-80
2022/07/15 04:34:37;;;;;;;2.95;1.33;;;;;;;;;;5107348;27;20052;-80
2022/07/15 04:37:03;;;;;;;9.25;1.20;;;;;;;;;;5123549;27;20031;-80
2022/07/15 04:39:31;;;;;;;3.40;1.25;;;;;;;;;;5122672;28;20078;-82
2022/07/15 04:41:58;;;;;;;4.22;1.85;;;;;;;;;;5121873;28;20061;-82
2022/07/15 04:44:23;;;;;;;3.45;1.17;;;;;;;;;;5120887;27;20031;-81
2022/07/15 04:46:49;;;;;;;2.13;1.05;;;;;;;;;;5138836;27;20095;-81
2022/07/15 04:52:14;;;;;;;7.37;1.50;;;;;;;;;;5137680;28;20418;-81
2022/07/15 04:54:43;;;;;;;10.77;2.00;;;;;;;;;;5137508;28;20376;-84
2022/07/15 04:57:11;;;;;;;8.45;1.70;;;;;;;;;;5140646;27;20032;-83
2022/07/15 04:59:37;;;;;;;6.13;1.45;;;;;;;;;;5139245;27;20108;-82
2022/07/15 05:02:06;;;;;;;5.80;1.20;;;;;;;;;;5120452;28;20027;-81
2022/07/15 05:04:41;;;;;;;3.72;1.30;;;;;;;;;;5133020;27;20031;-79
2022/07/15 05:07:08;;;;;;;6.30;1.67;;;;;;;;;;5099868;28;20033;-82
2022/07/15 05:09:36;;;;;;;7.53;1.52;;;;;;;;;;5133733;28;20089;-81
2022/07/15 05:12:05;;;;;;;6.60;1.40;;;;;;;;;;5119530;28;20449;-80
2022/07/15 05:14:40;;;;;;;;;;;;;;;;;;5120293;28;20407;-80
2022/07/15 05:17:09;;;;;;;3.53;1.30;;;;;;;;;;5119173;28;19915;-81
2022/07/15 05:19:36;;;;;;;4.65;1.30;;;;;;;;;;5126230;28;20073;-81
2022/07/15 05:22:03;;;;;;;4.00;1.40;;;;;;;;;;5113641;28;20020;-80
2022/07/15 05:24:30;;;;;;;3.85;1.20;;;;;;;;;;5115095;28;20091;-81
2022/07/15 05:27:03;;;;;;;2.95;1.30;;;;;;;;;;5099080;28;20027;-81
2022/07/15 05:29:31;;;;;;;5.53;1.45;;;;;;;;;;5101474;28;20024;-81
2022/07/15 05:31:57;;;;;;;5.25;1.50;;;;;;;;;;5100445;28;20042;-81
2022/07/15 05:34:24;;;;;;;4.82;1.40;;;;;;;;;;5116725;28;20062;-81
2022/07/15 05:36:51;;;;;;;4.38;1.27;;;;;;;;;;5125011;27;20037;-81
2022/07/15 05:39:18;;;;;;;4.28;1.58;;;;;;;;;;5141058;27;20037;-81
2022/07/15 05:41:44;;;;;;;4.72;1.38;;;;;;;;;;5157286;27;20034;-81
2022/07/15 05:44:11;;;;;;;11.52;2.47;;;;;;;;;;5157349;27;20035;-81
2022/07/15 05:46:44;;;;;;;3.72;1.70;;;;;;;;;;5157348;27;20027;-81
2022/07/15 05:49:12;;;;;;;3.90;1.50;;;;;;;;;;5137566;27;20098;-81
2022/07/15 05:51:37;;;;;;;6.30;1.88;;;;;;;;;;5138027;27;20031;-81
2022/07/15 05:54:03;;;;;;;12.07;1.90;;;;;;;;;;5157646;27;20026;-81
2022/07/15 05:56:31;;;;;;;8.68;1.52;;;;;;;;;;5144571;27;20031;-80
2022/07/15 05:58:56;;;;;;;10.35;1.80;;;;;;;;;;5145045;27;20041;-80
2022/07/15 06:01:28;;;;;;;11.82;2.05;;;;;;;;;;5145894;27;20022;-80
2022/07/15 06:03:54;;;;;;;11.02;2.28;;;;;;;;;;5162578;27;20030;-80
2022/07/15 06:06:20;;;;;;;7.63;1.65;;;;;;;;;;5144499;27;20041;-80
2022/07/15 06:08:48;;;;;;;8.07;1.52;;;;;;;;;;5160840;27;20030;-80
2022/07/15 06:11:14;;;;;;;8.18;1.80;;;;;;;;;;5144426;27;20026;-80
2022/07/15 06:13:41;;;;;;;8.55;1.75;;;;;;;;;;5144798;27;20030;-81
2022/07/15 06:16:07;;;;;;;9.85;1.98;;;;;;;;;;5162003;27;20030;-81
2022/07/15 06:18:33;;;;;;;11.77;2.28;;;;;;;;;;5144868;27;20479;-81
2022/07/15 06:21:01;;;;;;;8.35;2.00;;;;;;;;;;5145180;27;20034;-81
2022/07/15 06:23:27;;;;;;;13.15;2.75;;;;;;;;;;5146610;27;20404;-81
2022/07/15 06:25:55;;;;;;;11.43;1.95;;;;;;;;;;5162348;27;20050;-81
2022/07/15 06:28:24;;;;;;;6.85;1.60;;;;;;;;;;5145988;27;20026;-81
2022/07/15 06:30:49;;;;;;;6.95;1.70;;;;;;;;;;5145002;27;20031;-81
2022/07/15 06:33:15;;;;;;;3.83;1.42;;;;;;;;;;5162738;27;20026;-81
2022/07/15 06:35:42;;;;;;;10.25;2.08;;;;;;;;;;5132122;27;20038;-81
2022/07/15 06:38:08;;;;;;;11.20;2.33;;;;;;;;;;5123614;27;20035;-81
2022/07/15 06:40:35;;;;;;;9.45;2.92;;;;;;;;;;5135556;27;20051;-81
2022/07/15 06:43:01;;;;;;;10.23;1.73;;;;;;;;;;5103847;28;20118;-81
2022/07/15 06:45:46;;;;;;;11.02;1.77;;;;;;;;;;5121208;28;20063;-81
2022/07/15 06:48:12;;;;;;;8.30;2.03;;;;;;;;;;5119680;28;20477;-81
2022/07/15 06:50:37;;;;;;;5.38;1.45;;;;;;;;;;5103460;28;20186;-81
2022/07/15 06:53:03;;;;;;;8.52;1.98;;;;;;;;;;5119939;27;20141;-81
2022/07/15 06:55:30;;;;;;;9.80;1.83;;;;;;;;;;5119664;28;20030;-81
2022/07/15 06:57:56;;;;;;;6.82;1.95;;;;;;;;;;5120640;28;20036;-81
2022/07/15 07:00:23;;;;;;;11.48;1.73;;;;;;;;;;5136719;27;20042;-81
2022/07/15 07:02:49;;;;;;;7.38;1.85;;;;;;;;;;5102530;28;20031;-81
2022/07/15 07:05:16;;;;;;;4.82;1.70;;;;;;;;;;5119984;28;20023;-81
2022/07/15 07:07:42;;;;;;;7.70;1.52;;;;;;;;;;5119755;28;20035;-81
2022/07/15 07:10:09;;;;;;;6.93;2.00;;;;;;;;;;5120107;28;20465;-81
2022/07/15 07:12:36;;;;;;;8.48;2.63;;;;;;;;;;5120293;28;20024;-81
2022/07/15 07:15:02;;;;;;;9.10;1.60;;;;;;;;;;5119650;28;20027;-81
2022/07/15 07:17:28;;;;;;;10.00;2.53;;;;;;;;;;5118701;28;20023;-81
2022/07/15 07:19:55;;;;;;;6.80;1.55;;;;;;;;;;5129276;27;20035;-82
2022/07/15 07:22:21;;;;;;;7.15;1.77;;;;;;;;;;5140106;27;20043;-84
2022/07/15 07:24:47;;;;;;;8.68;2.22;;;;;;;;;;5121782;27;20035;-85
2022/07/15 07:27:14;;;;;;;8.75;1.80;;;;;;;;;;5123100;27;20098;-82
2022/07/15 07:29:40;;;;;;;6.95;1.40;;;;;;;;;;5123676;27;20065;-83
2022/07/15 07:32:08;;;;;;;6.90;1.85;;;;;;;;;;5123570;27;20035;-84
2022/07/15 07:34:33;;;;;;;8.85;2.08;;;;;;;;;;5121738;27;20070;-81
2022/07/15 07:37:01;;;;;;;8.48;1.90;;;;;;;;;;5137640;27;20096;-85
2022/07/15 07:39:26;;;;;;;7.93;1.83;;;;;;;;;;5122682;27;20039;-82
2022/07/15 07:41:53;;;;;;;11.02;2.20;;;;;;;;;;5140123;27;20046;-84
2022/07/15 07:44:20;;;;;;;7.22;1.70;;;;;;;;;;5126927;27;20051;-84
2022/07/15 07:46:46;;;;;;;7.25;1.90;;;;;;;;;;5121516;27;20468;-85
2022/07/15 07:49:13;;;;;;;11.10;1.75;;;;;;;;;;5138039;27;20103;-83
2022/07/15 07:51:40;;;;;;;9.40;2.22;;;;;;;;;;5107572;28;20035;-83
2022/07/15 07:54:07;;;;;;;5.18;1.55;;;;;;;;;;5117859;28;20409;-83
2022/07/15 07:56:32;;;;;;;6.78;1.63;;;;;;;;;;5125315;27;20031;-83
2022/07/15 07:58:58;;;;;;;8.88;2.15;;;;;;;;;;5120731;27;20051;-83
2022/07/15 08:01:26;;;;;;;9.73;1.48;;;;;;;;;;5126544;27;20052;-83
2022/07/15 08:03:51;;;;;;;7.18;1.83;;;;;;;;;;5127065;27;20039;-83
2022/07/15 08:06:17;;;;;;;7.20;1.77;;;;;;;;;;5122529;27;20511;-83
2022/07/15 08:08:44;;;;;;;4.90;1.45;;;;;;;;;;5116871;28;20031;-83
2022/07/15 08:11:11;;;;;;;5.18;1.33;;;;;;;;;;5119540;28;20039;-81
2022/07/15 08:13:38;;;;;;;9.73;1.90;;;;;;;;;;5099131;28;20031;-81
2022/07/15 08:16:04;;;;;;;6.00;1.35;;;;;;;;;;5120996;27;20031;-81
2022/07/15 08:18:31;;;;;;;11.95;2.28;;;;;;;;;;5136525;27;20061;-81
2022/07/15 08:20:57;;;;;;;7.10;1.50;;;;;;;;;;5136389;27;20492;-81
2022/07/15 08:23:24;;;;;;;13.60;1.80;;;;;;;;;;5135846;27;20049;-81
2022/07/15 08:25:51;;;;;;;15.98;2.17;;;;;;;;;;5118907;27;20116;-81
2022/07/15 08:28:18;;;;;;;9.05;1.80;;;;;;;;;;5101851;28;20059;-81
2022/07/15 08:30:44;;;;;;;8.98;2.03;;;;;;;;;;5098631;28;20081;-81
2022/07/15 08:33:09;;;;;;;18.88;2.45;;;;;;;;;;5099561;27;20023;-81
2022/07/15 08:35:35;;;;;;;6.05;1.65;;;;;;;;;;5135750;27;20487;-79
2022/07/15 08:38:07;;;;;;;9.15;2.03;;;;;;;;;;5135771;27;20050;-79
2022/07/15 08:40:34;;;;;;;10.98;1.83;;;;;;;;;;5136134;27;20054;-79
2022/07/15 08:42:59;;;;;;;12.27;2.42;;;;;;;;;;5134576;27;20023;-79
2022/07/15 08:45:26;;;;;;;36.75;3.38;;;;;;;;;;5135354;27;20064;-78
2022/07/15 08:47:52;;;;;;;10.82;2.25;;;;;;;;;;5134179;27;20039;-78
2022/07/15 08:50:18;;;;;;;8.38;1.95;;;;;;;;;;5138658;27;20031;-85
2022/07/15 08:52:47;;;;;;;7.68;1.60;;;;;;;;;;5120614;28;20080;-79
2022/07/15 08:55:15;;;;;;;13.30;1.98;;;;;;;;;;5136033;28;20035;-79
2022/07/15 08:57:49;;;;;;;7.90;1.50;;;;;;;;;;5117783;28;20035;-79
2022/07/15 09:00:39;;;;;;;10.52;2.60;;;;;;;;;;5135738;27;20088;-79
2022/07/15 09:03:09;;;;;;;6.63;1.83;;;;;;;;;;5135039;27;20047;-79
2022/07/15 09:05:37;;;;;;;10.75;2.15;;;;;;;;;;5118500;27;20031;-80
2022/07/15 09:08:12;;;;;;;4.97;1.60;;;;;;;;;;5122922;27;20036;-80
2022/07/15 09:10:48;;;;;;;7.00;1.48;;;;;;;;;;5098895;28;20028;-80
2022/07/15 09:13:38;;;;;;;5.93;1.45;;;;;;;;;;5142166;27;20038;-79
2022/07/15 09:16:21;;;;;;;6.47;1.67;;;;;;;;;;5157993;27;20066;-79
2022/07/15 09:18:49;;;;;;;6.63;1.75;;;;;;;;;;5157932;27;20030;-79
2022/07/15 09:21:19;;;;;;;6.05;1.58;;;;;;;;;;5157729;27;20031;-79
2022/07/15 09:23:47;;;;;;;7.55;1.80;;;;;;;;;;5140465;27;20056;-79
2022/07/15 09:26:30;;;;;;;10.43;1.65;;;;;;;;;;5140463;27;20475;-79
2022/07/15 09:28:57;;;;;;;6.38;1.90;;;;;;;;;;5141217;27;20425;-79
2022/07/15 09:34:59;;;;;;;6.57;1.33;;;;;;;;;;5163143;27;20054;-79
2022/07/15 09:37:26;;;;;;;7.03;1.55;;;;;;;;;;5144455;27;20034;-79
2022/07/15 09:39:56;;;;;;;5.55;1.45;;;;;;;;;;5143299;27;20043;-79
2022/07/15 09:42:22;;;;;;;10.80;1.48;;;;;;;;;;5138389;27;20098;-79
2022/07/15 09:44:48;;;;;;;9.50;1.20;;;;;;;;;;5124196;27;20073;-79
2022/07/15 09:47:20;;;;;;;6.20;1.27;;;;;;;;;;5123005;27;20038;-79
2022/07/15 09:49:46;;;;;;;6.40;1.42;;;;;;;;;;5141302;27;20035;-81
2022/07/15 09:52:14;;;;;;;6.60;1.55;;;;;;;;;;5140808;27;20057;-80
2022/07/15 09:54:47;;;;;;;5.20;1.75;;;;;;;;;;5139742;27;20062;-79
2022/07/15 09:57:18;;;;;;;7.43;1.58;;;;;;;;;;5123357;27;20042;-79
2022/07/15 09:59:47;;;;;;;8.10;1.50;;;;;;;;;;5122589;27;20088;-79
2022/07/15 10:02:26;;;;;;;4.97;1.08;;;;;;;;;;5122526;27;20088;-79
2022/07/15 10:04:52;;;;;;;3.22;1.25;;;;;;;;;;5123114;27;20112;-79
2022/07/15 10:07:19;;;;;;;7.78;1.88;;;;;;;;;;5137668;27;20042;-80
2022/07/15 10:09:45;;;;;;;6.93;1.35;;;;;;;;;;5160950;27;20577;-80
2022/07/15 10:12:19;;;;;;;5.13;1.52;;;;;;;;;;5161865;27;20043;-81
2022/07/15 10:15:12;;;;;;;9.00;1.45;;;;;;;;;;5144519;27;20050;-82
2022/07/15 10:17:40;;;;;;;6.68;1.38;;;;;;;;;;5164735;27;20098;-81
2022/07/15 10:20:27;;;;;;;5.22;1.40;;;;;;;;;;5164537;27;20039;-82
2022/07/15 10:23:24;;;;;;;8.07;1.33;;;;;;;;;;5144026;27;20500;-81
2022/07/15 10:26:12;;;;;;;8.18;1.35;;;;;;;;;;5163201;27;20027;-83
2022/07/15 10:28:38;;;;;;;7.93;1.77;;;;;;;;;;5142158;27;20048;-82
2022/07/15 10:31:17;;;;;;;6.70;1.70;;;;;;;;;;5134451;27;20557;-85
2022/07/15 10:34:03;;;;;;;3.97;1.20;;;;;;;;;;5100879;28;20066;-85
2022/07/15 10:36:47;;;;;;;5.72;1.02;;;;;;;;;;5102973;28;20103;-80
2022/07/15 10:39:14;;;;;;;4.72;1.33;;;;;;;;;;5119149;28;20126;-82
2022/07/15 10:41:52;;;;;;;8.80;1.60;;;;;;;;;;5100792;28;20039;-81
2022/07/15 10:44:19;;;;;;;6.75;1.88;;;;;;;;;;5119888;28;20036;-82
2022/07/15 10:46:44;;;;;;;3.78;0.95;;;;;;;;;;5117993;28;20538;-83
2022/07/15 10:49:10;;;;;;;18.65;1.50;;;;;;;;;;5121663;27;20328;-82
2022/07/15 10:51:35;;;;;;;4.95;1.17;;;;;;;;;;5128622;27;20023;-84
2022/07/15 10:54:02;;;;;;;7.45;1.40;;;;;;;;;;5135292;27;20038;-82
2022/07/15 10:56:34;;;;;;;3.53;1.38;;;;;;;;;;5120485;27;20023;-84
2022/07/15 10:59:26;;;;;;;4.68;1.63;;;;;;;;;;5135291;27;20109;-82
2022/07/15 11:02:00;;;;;;;3.35;0.80;;;;;;;;;;5110566;28;20035;-77
2022/07/15 11:04:33;;;;;;;3.88;1.27;;;;;;;;;;5147709;27;20073;-79
2022/07/15 11:07:01;;;;;;;4.53;1.20;;;;;;;;;;5126962;27;20038;-78
2022/07/15 11:09:55;;;;;;;4.97;1.27;;;;;;;;;;5126087;27;20036;-79
2022/07/15 11:12:29;;;;;;;9.07;1.20;;;;;;;;;;5138952;27;20041;-80
2022/07/15 11:15:01;;;;;;;4.70;0.85;;;;;;;;;;5116250;27;20031;-84
2022/07/15 11:17:29;;;;;;;8.68;1.60;;;;;;;;;;5139097;27;20080;-84
2022/07/15 11:19:57;;;;;;;8.00;1.30;;;;;;;;;;5136255;27;21988;-83
2022/07/15 11:22:26;;;;;;;3.10;1.13;;;;;;;;;;5131348;27;20407;-83
2022/07/15 11:24:52;;;;;;;5.32;1.38;;;;;;;;;;5129852;27;20035;-80
2022/07/15 11:27:19;;;;;;;4.97;1.90;;;;;;;;;;5139915;27;20028;-81
2022/07/15 11:30:03;;;;;;;3.35;1.35;;;;;;;;;;5132412;27;20030;-81
2022/07/15 11:32:30;;;;;;;6.40;1.75;;;;;;;;;;5119534;28;20429;-80
2022/07/15 11:34:59;;;;;;;5.38;1.50;;;;;;;;;;5110570;27;20526;-79
2022/07/15 11:37:31;;;;;;;4.38;1.13;;;;;;;;;;5120554;27;20527;-81
2022/07/15 11:44:29;;;;;;;3.97;1.25;;;;;;;;;;5133302;27;20055;-78
2022/07/15 11:45:47;;;;;;;6.18;1.65;;;;;;;;;;5120807;27;20034;-77
2022/07/15 11:48:13;;;;;;;3.53;1.10;;;;;;;;;;5126487;27;20028;-77
2022/07/15 11:50:50;;;;;;;8.48;1.30;;;;;;;;;;5116709;28;20586;-82
2022/07/15 11:53:16;;;;;;;6.15;1.55;;;;;;;;;;5104825;27;20383;-79
2022/07/15 11:55:56;;;;;;;4.68;1.20;;;;;;;;;;5126706;27;20032;-81
2022/07/15 11:58:37;;;;;;;4.30;1.08;;;;;;;;;;5134787;27;20392;-79
2022/07/15 12:01:11;;;;;;;2.15;1.10;;;;;;;;;;5136463;27;20031;-80
2022/07/15 12:03:40;;;;;;;5.20;1.80;;;;;;;;;;5144195;27;20030;-80
2022/07/15 12:06:19;;;;;;;7.13;2.38;;;;;;;;;;5149118;27;20035;-81
2022/07/15 12:09:10;;;;;;;3.75;1.45;;;;;;;;;;5146776;27;20476;-82
2022/07/15 12:11:38;;;;;;;4.60;1.50;;;;;;;;;;5147544;27;20043;-82
2022/07/15 12:14:17;;;;;;;4.82;1.45;;;;;;;;;;5149918;27;20034;-82
2022/07/15 12:16:45;;;;;;;9.25;1.85;;;;;;;;;;5169753;27;20051;-83
2022/07/15 12:19:19;;;;;;;8.32;1.67;;;;;;;;;;5149141;27;20045;-82
2022/07/15 12:21:47;;;;;;;3.97;1.00;;;;;;;;;;5149981;27;20045;-82
2022/07/15 12:24:15;;;;;;;4.10;1.30;;;;;;;;;;5151051;27;20041;-82
2022/07/15 12:26:55;;;;;;;4.65;1.13;;;;;;;;;;5151151;27;20554;-82
2022/07/15 12:29:32;;;;;;;3.75;1.08;;;;;;;;;;5153104;27;20039;-82
2022/07/15 12:31:59;;;;;;;4.47;1.35;;;;;;;;;;5169889;27;20094;-82
2022/07/15 12:34:47;;;;;;;9.75;1.58;;;;;;;;;;5151482;27;20035;-82
2022/07/15 12:37:14;;;;;;;3.92;1.00;;;;;;;;;;5141033;27;20035;-82
2022/07/15 12:40:03;;;;;;;3.55;1.05;;;;;;;;;;5148987;27;20055;-82
2022/07/15 12:42:37;;;;;;;6.30;1.52;;;;;;;;;;5131935;27;20052;-83
2022/07/15 12:45:09;;;;;;;8.35;1.55;;;;;;;;;;5131687;27;20560;-82
2022/07/15 12:47:36;;;;;;;3.53;0.98;;;;;;;;;;5150400;27;20042;-82
2022/07/15 12:50:03;;;;;;;3.35;1.20;;;;;;;;;;5150944;27;20060;-83
2022/07/15 12:52:37;;;;;;;4.45;1.40;;;;;;;;;;5133357;28;20035;-83
2022/07/15 12:55:26;;;;;;;3.83;1.13;;;;;;;;;;5133189;28;20099;-82
2022/07/15 12:58:10;;;;;;;2.92;1.15;;;;;;;;;;5154854;28;20054;-83
2022/07/15 13:00:37;;;;;;;3.10;1.15;;;;;;;;;;5133899;28;20103;-82
2022/07/15 13:03:07;;;;;;;8.40;1.63;;;;;;;;;;5132564;28;20039;-82
2022/07/15 13:05:33;;;;;;;3.80;1.30;;;;;;;;;;5146320;27;20011;-84
2022/07/15 13:08:00;;;;;;;4.22;1.45;;;;;;;;;;5159582;27;20030;-83
2022/07/15 13:10:28;;;;;;;8.65;1.52;;;;;;;;;;5158692;27;20051;-84
2022/07/15 13:12:53;;;;;;;4.75;1.17;;;;;;;;;;5159202;27;20098;-83
2022/07/15 13:15:19;;;;;;;5.55;1.55;;;;;;;;;;5157264;27;20038;-84
2022/07/15 13:17:44;;;;;;;3.67;1.10;;;;;;;;;;5150049;27;20105;-84
2022/07/15 13:20:12;;;;;;;3.95;0.85;;;;;;;;;;5129667;27;20036;-83
2022/07/15 13:22:38;;;;;;;3.35;1.27;;;;;;;;;;5126487;27;20047;-84
2022/07/15 13:25:04;;;;;;;3.20;1.02;;;;;;;;;;5127286;28;20087;-83
2022/07/15 13:27:29;;;;;;;4.05;1.20;;;;;;;;;;5141333;27;20051;-83
2022/07/15 13:29:54;;;;;;;4.43;1.35;;;;;;;;;;5135926;27;20557;-84
2022/07/15 13:32:20;;;;;;;3.55;1.17;;;;;;;;;;5133982;27;20046;-84
2022/07/15 13:34:46;;;;;;;3.00;1.30;;;;;;;;;;5132199;27;20038;-84
2022/07/15 13:37:11;;;;;;;3.58;1.23;;;;;;;;;;5125367;28;20069;-85
2022/07/15 13:39:37;;;;;;;3.03;1.20;;;;;;;;;;5126437;28;20069;-84
2022/07/15 13:42:03;;;;;;;2.97;1.02;;;;;;;;;;5133725;27;20050;-84
2022/07/15 13:44:28;;;;;;;3.70;1.13;;;;;;;;;;5148831;27;20035;-85
2022/07/15 13:46:54;;;;;;;7.03;1.52;;;;;;;;;;5117011;28;20034;-84
2022/07/15 13:51:22;;;;;;;2.38;1.00;;;;;;;;;;5113315;28;20501;-84
2022/07/15 13:52:08;;;;;;;2.80;0.90;;;;;;;;;;5132091;28;20039;-84
2022/07/15 13:54:35;;;;;;;4.30;0.90;;;;;;;;;;5112444;28;20031;-85
2022/07/15 13:57:01;;;;;;;2.33;0.90;;;;;;;;;;5111585;28;20031;-84
2022/07/15 13:59:27;;;;;;;4.15;0.98;;;;;;;;;;5112186;28;20039;-84
2022/07/15 14:01:53;;;;;;;4.25;1.30;;;;;;;;;;5111421;28;20039;-84
2022/07/15 14:04:20;;;;;;;5.00;0.90;;;;;;;;;;5129670;27;20377;-84
2022/07/15 14:06:45;;;;;;;4.78;1.40;;;;;;;;;;5149324;27;20038;-79
2022/07/15 14:09:11;;;;;;;3.45;1.20;;;;;;;;;;5164858;27;20035;-86
2022/07/15 14:11:37;;;;;;;2.40;0.80;;;;;;;;;;5146749;27;20046;-85
2022/07/15 14:14:04;;;;;;;4.25;1.15;;;;;;;;;;5164889;27;20100;-84
2022/07/15 14:16:30;;;;;;;9.68;1.02;;;;;;;;;;5147687;27;20035;-84
2022/07/15 14:18:56;;;;;;;3.67;1.20;;;;;;;;;;5165309;27;20061;-84
2022/07/15 14:21:22;;;;;;;2.65;1.15;;;;;;;;;;5148144;27;20034;-84
2022/07/15 14:23:48;;;;;;;4.15;1.70;;;;;;;;;;5147648;27;20038;-84
2022/07/15 14:26:15;;;;;;;2.08;0.77;;;;;;;;;;5148779;27;20062;-85
2022/07/15 14:28:42;;;;;;;7.70;1.10;;;;;;;;;;5165728;27;20045;-85
2022/07/15 14:31:12;;;;;;;3.17;1.20;;;;;;;;;;5148602;27;20053;-85
2022/07/15 14:33:39;;;;;;;5.13;1.15;;;;;;;;;;5148042;27;20098;-85
2022/07/15 14:36:06;;;;;;;3.33;1.00;;;;;;;;;;5153979;27;20031;-85
2022/07/15 14:38:32;;;;;;;2.63;1.08;;;;;;;;;;5113826;28;20039;-85
2022/07/15 14:40:58;;;;;;;3.45;0.90;;;;;;;;;;5121320;28;20417;-85
2022/07/15 14:43:23;;;;;;;2.95;0.93;;;;;;;;;;5117420;28;20043;-84
2022/07/15 14:45:51;;;;;;;5.20;1.77;;;;;;;;;;5112739;27;20076;-85
2022/07/15 14:48:16;;;;;;;5.53;1.00;;;;;;;;;;5125709;28;20040;-85
2022/07/15 14:50:42;;;;;;;2.00;0.77;;;;;;;;;;5106581;28;20061;-85
2022/07/15 14:53:08;;;;;;;2.70;0.80;;;;;;;;;;5123254;28;20093;-85
2022/07/15 14:55:33;;;;;;;3.28;1.05;;;;;;;;;;5108832;28;20036;-84
2022/07/15 14:57:59;;;;;;;4.20;1.33;;;;;;;;;;5107777;28;20031;-85
2022/07/15 15:00:25;;;;;;;3.35;0.95;;;;;;;;;;5106390;28;20035;-84
2022/07/15 15:02:50;;;;;;;3.45;1.10;;;;;;;;;;5105849;28;20099;-84